sensor_id;sensor_type;location;lat;lon;timestamp;temperature;humidity
3758;DHT22;1894;51.038;13.692;2023-06-10T00:02:06;18.90;99.90
3758;DHT22;1894;51.038;13.692;2023-06-10T00:04:35;19.00;99.90
3758;DHT22;1894;51.038;13.692;2023-06-10T00:07:05;19.10;99.90
3758;DHT22;1894;51.038;13.692;2023-06-10T00:09:36;19.10;99.90
3758;DHT22;1894;51.038;13.692;2023-06-10T00:12:08;19.10;99.90
3758;DHT22;1894;51.038;13.692;2023-06-10T00:14:40;19.20;99.90
3758;DHT22;1894;51.038;13.692;2023-06-10T00:17:07;19.30;99.90
3758;DHT22;1894;51.038;13.692;2023-06-10T00:19:38;19.30;99.90
3758;DHT22;1894;51.038;13.692;2023-06-10T00:22:09;19.20;99.90
3758;DHT22;1894;51.038;13.692;2023-06-10T00:24:41;19.30;99.90
3758;DHT22;1894;51.038;13.692;2023-06-10T00:27:09;19.30;99.90
3758;DHT22;1894;51.038;13.692;2023-06-10T00:29:36;19.20;99.90
3758;DHT22;1894;51.038;13.692;2023-06-10T00:32:03;19.10;99.90
3758;DHT22;1894;51.038;13.692;2023-06-10T00:34:32;19.00;99.90
3758;DHT22;1894;51.038;13.692;2023-06-10T00:37:00;19.00;99.90
3758;DHT22;1894;51.038;13.692;2023-06-10T00:39:30;18.90;99.90
3758;DHT22;1894;51.038;13.692;2023-06-10T00:41:57;18.90;99.90
3758;DHT22;1894;51.038;13.692;2023-06-10T00:44:26;18.80;99.90
3758;DHT22;1894;51.038;13.692;2023-06-10T00:46:53;18.90;99.90
3758;DHT22;1894;51.038;13.692;2023-06-10T00:49:22;18.90;99.90
3758;DHT22;1894;51.038;13.692;2023-06-10T00:51:50;18.90;99.90
3758;DHT22;1894;51.038;13.692;2023-06-10T00:54:18;18.80;99.90
3758;DHT22;1894;51.038;13.692;2023-06-10T00:56:48;18.70;99.90
3758;DHT22;1894;51.038;13.692;2023-06-10T00:59:15;18.70;99.90
3758;DHT22;1894;51.038;13.692;2023-06-10T01:01:42;18.50;99.90
3758;DHT22;1894;51.038;13.692;2023-06-10T01:04:11;18.40;99.90
3758;DHT22;1894;51.038;13.692;2023-06-10T01:09:30;18.20;99.90
3758;DHT22;1894;51.038;13.692;2023-06-10T01:12:13;18.10;99.90
3758;DHT22;1894;51.038;13.692;2023-06-10T01:14:43;18.00;99.90
3758;DHT22;1894;51.038;13.692;2023-06-10T01:17:12;18.00;99.90
3758;DHT22;1894;51.038;13.692;2023-06-10T01:19:44;17.90;99.90
3758;DHT22;1894;51.038;13.692;2023-06-10T01:22:12;17.80;99.90
3758;DHT22;1894;51.038;13.692;2023-06-10T01:24:43;17.70;99.90
3758;DHT22;1894;51.038;13.692;2023-06-10T01:27:15;17.60;99.90
3758;DHT22;1894;51.038;13.692;2023-06-10T01:29:46;17.60;99.90
3758;DHT22;1894;51.038;13.692;2023-06-10T01:32:37;17.50;99.90
3758;DHT22;1894;51.038;13.692;2023-06-10T01:35:06;17.40;99.90
3758;DHT22;1894;51.038;13.692;2023-06-10T01:37:38;17.40;99.90
3758;DHT22;1894;51.038;13.692;2023-06-10T01:40:07;17.50;99.90
3758;DHT22;1894;51.038;13.692;2023-06-10T01:42:35;17.40;99.90
3758;DHT22;1894;51.038;13.692;2023-06-10T01:45:03;17.40;99.90
3758;DHT22;1894;51.038;13.692;2023-06-10T01:47:30;17.50;99.90
3758;DHT22;1894;51.038;13.692;2023-06-10T01:49:59;17.50;99.90
3758;DHT22;1894;51.038;13.692;2023-06-10T01:52:27;17.50;99.90
3758;DHT22;1894;51.038;13.692;2023-06-10T01:54:54;17.50;99.90
3758;DHT22;1894;51.038;13.692;2023-06-10T01:57:22;17.50;99.90
3758;DHT22;1894;51.038;13.692;2023-06-10T01:59:49;17.50;99.90
3758;DHT22;1894;51.038;13.692;2023-06-10T02:02:16;17.50;99.90
3758;DHT22;1894;51.038;13.692;2023-06-10T02:04:43;17.40;99.90
3758;DHT22;1894;51.038;13.692;2023-06-10T02:07:10;17.40;99.90
3758;DHT22;1894;51.038;13.692;2023-06-10T02:09:39;17.30;99.90
3758;DHT22;1894;51.038;13.692;2023-06-10T02:12:06;17.30;99.90
3758;DHT22;1894;51.038;13.692;2023-06-10T02:14:34;17.20;99.90
3758;DHT22;1894;51.038;13.692;2023-06-10T02:17:01;17.20;99.90
3758;DHT22;1894;51.038;13.692;2023-06-10T02:19:28;17.10;99.90
3758;DHT22;1894;51.038;13.692;2023-06-10T02:21:55;17.00;99.90
3758;DHT22;1894;51.038;13.692;2023-06-10T02:24:22;16.90;99.90
3758;DHT22;1894;51.038;13.692;2023-06-10T02:26:49;16.90;99.90
3758;DHT22;1894;51.038;13.692;2023-06-10T02:29:18;16.90;99.90
3758;DHT22;1894;51.038;13.692;2023-06-10T02:31:47;16.70;99.90
3758;DHT22;1894;51.038;13.692;2023-06-10T02:34:15;16.80;99.90
3758;DHT22;1894;51.038;13.692;2023-06-10T02:36:42;16.60;99.90
3758;DHT22;1894;51.038;13.692;2023-06-10T02:39:09;16.60;99.90
3758;DHT22;1894;51.038;13.692;2023-06-10T02:41:36;16.50;99.90
3758;DHT22;1894;51.038;13.692;2023-06-10T02:44:05;16.50;99.90
3758;DHT22;1894;51.038;13.692;2023-06-10T02:46:33;16.50;99.90
3758;DHT22;1894;51.038;13.692;2023-06-10T02:49:00;16.40;99.90
3758;DHT22;1894;51.038;13.692;2023-06-10T02:51:28;16.30;99.90
3758;DHT22;1894;51.038;13.692;2023-06-10T02:54:00;16.30;99.90
3758;DHT22;1894;51.038;13.692;2023-06-10T02:56:27;16.30;99.90
3758;DHT22;1894;51.038;13.692;2023-06-10T02:58:57;16.20;99.90
3758;DHT22;1894;51.038;13.692;2023-06-10T03:01:26;16.10;99.90
3758;DHT22;1894;51.038;13.692;2023-06-10T03:04:00;16.10;99.90
3758;DHT22;1894;51.038;13.692;2023-06-10T03:06:27;16.10;99.90
3758;DHT22;1894;51.038;13.692;2023-06-10T03:09:05;16.10;99.90
3758;DHT22;1894;51.038;13.692;2023-06-10T03:11:35;16.00;99.90
3758;DHT22;1894;51.038;13.692;2023-06-10T03:14:06;16.00;99.90
3758;DHT22;1894;51.038;13.692;2023-06-10T03:16:36;16.00;99.90
3758;DHT22;1894;51.038;13.692;2023-06-10T03:19:10;16.10;99.90
3758;DHT22;1894;51.038;13.692;2023-06-10T03:21:44;16.10;99.90
3758;DHT22;1894;51.038;13.692;2023-06-10T03:24:13;16.20;99.90
3758;DHT22;1894;51.038;13.692;2023-06-10T03:26:40;16.10;99.90
3758;DHT22;1894;51.038;13.692;2023-06-10T03:29:07;16.20;99.90
3758;DHT22;1894;51.038;13.692;2023-06-10T03:31:35;16.10;99.90
3758;DHT22;1894;51.038;13.692;2023-06-10T03:34:05;16.00;99.90
3758;DHT22;1894;51.038;13.692;2023-06-10T03:36:32;16.10;99.90
3758;DHT22;1894;51.038;13.692;2023-06-10T03:39:00;16.00;99.90
3758;DHT22;1894;51.038;13.692;2023-06-10T03:41:28;16.00;99.90
3758;DHT22;1894;51.038;13.692;2023-06-10T03:43:55;16.00;99.90
3758;DHT22;1894;51.038;13.692;2023-06-10T03:46:23;16.10;99.90
3758;DHT22;1894;51.038;13.692;2023-06-10T03:48:50;16.10;99.90
3758;DHT22;1894;51.038;13.692;2023-06-10T03:51:18;16.20;99.90
3758;DHT22;1894;51.038;13.692;2023-06-10T03:53:46;16.10;99.90
3758;DHT22;1894;51.038;13.692;2023-06-10T03:56:13;16.20;99.90
3758;DHT22;1894;51.038;13.692;2023-06-10T03:58:40;16.30;99.90
3758;DHT22;1894;51.038;13.692;2023-06-10T04:01:09;16.40;99.90
3758;DHT22;1894;51.038;13.692;2023-06-10T04:03:37;16.50;99.90
3758;DHT22;1894;51.038;13.692;2023-06-10T04:06:06;16.50;99.90
3758;DHT22;1894;51.038;13.692;2023-06-10T04:08:33;16.70;99.90
3758;DHT22;1894;51.038;13.692;2023-06-10T04:11:00;16.80;99.90
3758;DHT22;1894;51.038;13.692;2023-06-10T04:13:27;16.70;99.90
3758;DHT22;1894;51.038;13.692;2023-06-10T04:15:57;16.80;99.90
3758;DHT22;1894;51.038;13.692;2023-06-10T04:18:25;17.00;99.90
3758;DHT22;1894;51.038;13.692;2023-06-10T04:20:55;17.20;99.90
3758;DHT22;1894;51.038;13.692;2023-06-10T04:23:22;17.30;99.90
3758;DHT22;1894;51.038;13.692;2023-06-10T04:25:50;17.30;99.90
3758;DHT22;1894;51.038;13.692;2023-06-10T04:28:18;17.30;99.90
3758;DHT22;1894;51.038;13.692;2023-06-10T04:30:45;17.50;99.90
3758;DHT22;1894;51.038;13.692;2023-06-10T04:33:13;17.60;99.90
3758;DHT22;1894;51.038;13.692;2023-06-10T04:35:40;17.70;99.90
3758;DHT22;1894;51.038;13.692;2023-06-10T04:38:11;17.90;99.90
3758;DHT22;1894;51.038;13.692;2023-06-10T04:40:38;17.90;99.90
3758;DHT22;1894;51.038;13.692;2023-06-10T04:43:07;18.00;99.90
3758;DHT22;1894;51.038;13.692;2023-06-10T04:45:34;18.30;99.90
3758;DHT22;1894;51.038;13.692;2023-06-10T04:48:01;18.50;99.90
3758;DHT22;1894;51.038;13.692;2023-06-10T04:50:28;18.60;99.90
3758;DHT22;1894;51.038;13.692;2023-06-10T04:52:55;18.60;99.90
3758;DHT22;1894;51.038;13.692;2023-06-10T04:55:24;18.70;99.90
3758;DHT22;1894;51.038;13.692;2023-06-10T04:57:52;18.90;99.90
3758;DHT22;1894;51.038;13.692;2023-06-10T05:00:19;19.00;99.90
3758;DHT22;1894;51.038;13.692;2023-06-10T05:02:47;19.20;99.90
3758;DHT22;1894;51.038;13.692;2023-06-10T05:05:17;19.30;99.90
3758;DHT22;1894;51.038;13.692;2023-06-10T05:07:45;19.50;99.90
3758;DHT22;1894;51.038;13.692;2023-06-10T05:10:12;19.50;99.90
3758;DHT22;1894;51.038;13.692;2023-06-10T05:12:39;19.40;99.90
3758;DHT22;1894;51.038;13.692;2023-06-10T05:15:07;19.50;99.90
3758;DHT22;1894;51.038;13.692;2023-06-10T05:17:35;19.70;99.90
3758;DHT22;1894;51.038;13.692;2023-06-10T05:20:03;20.10;99.90
3758;DHT22;1894;51.038;13.692;2023-06-10T05:22:30;20.10;99.90
3758;DHT22;1894;51.038;13.692;2023-06-10T05:24:57;20.20;99.90
3758;DHT22;1894;51.038;13.692;2023-06-10T05:27:24;20.40;99.90
3758;DHT22;1894;51.038;13.692;2023-06-10T05:29:52;20.50;99.90
3758;DHT22;1894;51.038;13.692;2023-06-10T05:32:19;20.60;99.90
3758;DHT22;1894;51.038;13.692;2023-06-10T05:34:47;20.60;99.90
3758;DHT22;1894;51.038;13.692;2023-06-10T05:37:14;20.50;99.90
3758;DHT22;1894;51.038;13.692;2023-06-10T05:39:41;20.30;99.90
3758;DHT22;1894;51.038;13.692;2023-06-10T05:42:08;20.20;99.90
3758;DHT22;1894;51.038;13.692;2023-06-10T05:44:35;20.10;99.90
3758;DHT22;1894;51.038;13.692;2023-06-10T05:47:03;20.10;99.90
3758;DHT22;1894;51.038;13.692;2023-06-10T05:49:30;20.10;99.90
3758;DHT22;1894;51.038;13.692;2023-06-10T05:51:57;20.40;99.90
3758;DHT22;1894;51.038;13.692;2023-06-10T05:54:26;20.80;99.90
3758;DHT22;1894;51.038;13.692;2023-06-10T05:56:56;21.10;99.90
3758;DHT22;1894;51.038;13.692;2023-06-10T05:59:23;21.40;99.90
3758;DHT22;1894;51.038;13.692;2023-06-10T06:01:50;21.50;99.90
3758;DHT22;1894;51.038;13.692;2023-06-10T06:04:17;21.60;99.90
3758;DHT22;1894;51.038;13.692;2023-06-10T06:06:44;21.60;99.90
3758;DHT22;1894;51.038;13.692;2023-06-10T06:09:11;21.60;99.90
3758;DHT22;1894;51.038;13.692;2023-06-10T06:11:39;21.50;99.90
3758;DHT22;1894;51.038;13.692;2023-06-10T06:14:06;21.40;99.90
3758;DHT22;1894;51.038;13.692;2023-06-10T06:16:33;21.40;99.90
3758;DHT22;1894;51.038;13.692;2023-06-10T06:19:01;21.90;99.90
3758;DHT22;1894;51.038;13.692;2023-06-10T06:21:28;22.10;99.90
3758;DHT22;1894;51.038;13.692;2023-06-10T06:23:55;22.40;99.90
3758;DHT22;1894;51.038;13.692;2023-06-10T06:26:22;22.30;99.90
3758;DHT22;1894;51.038;13.692;2023-06-10T06:28:49;22.40;99.90
3758;DHT22;1894;51.038;13.692;2023-06-10T06:31:16;22.50;99.90
3758;DHT22;1894;51.038;13.692;2023-06-10T06:33:43;22.70;99.90
3758;DHT22;1894;51.038;13.692;2023-06-10T06:36:11;22.40;99.90
3758;DHT22;1894;51.038;13.692;2023-06-10T06:38:38;22.50;99.90
3758;DHT22;1894;51.038;13.692;2023-06-10T06:41:05;22.80;99.90
3758;DHT22;1894;51.038;13.692;2023-06-10T06:43:34;23.10;99.90
3758;DHT22;1894;51.038;13.692;2023-06-10T06:46:27;23.20;99.90
3758;DHT22;1894;51.038;13.692;2023-06-10T06:48:55;23.10;99.90
3758;DHT22;1894;51.038;13.692;2023-06-10T06:51:22;22.70;99.90
3758;DHT22;1894;51.038;13.692;2023-06-10T06:53:49;22.60;99.90
3758;DHT22;1894;51.038;13.692;2023-06-10T06:56:18;22.30;99.90
3758;DHT22;1894;51.038;13.692;2023-06-10T06:58:45;22.20;99.90
3758;DHT22;1894;51.038;13.692;2023-06-10T07:01:12;22.20;99.90
3758;DHT22;1894;51.038;13.692;2023-06-10T07:03:39;22.00;99.90
3758;DHT22;1894;51.038;13.692;2023-06-10T07:06:06;21.80;99.90
3758;DHT22;1894;51.038;13.692;2023-06-10T07:08:33;22.00;99.90
3758;DHT22;1894;51.038;13.692;2023-06-10T07:11:00;22.10;99.90
3758;DHT22;1894;51.038;13.692;2023-06-10T07:13:27;22.30;99.90
3758;DHT22;1894;51.038;13.692;2023-06-10T07:15:54;22.50;99.90
3758;DHT22;1894;51.038;13.692;2023-06-10T07:18:21;22.70;99.90
3758;DHT22;1894;51.038;13.692;2023-06-10T07:20:48;22.90;99.90
3758;DHT22;1894;51.038;13.692;2023-06-10T07:23:16;23.30;99.90
3758;DHT22;1894;51.038;13.692;2023-06-10T07:25:43;23.70;99.90
3758;DHT22;1894;51.038;13.692;2023-06-10T07:28:10;23.40;99.90
3758;DHT22;1894;51.038;13.692;2023-06-10T07:30:37;23.10;99.90
3758;DHT22;1894;51.038;13.692;2023-06-10T07:33:04;22.90;99.90
3758;DHT22;1894;51.038;13.692;2023-06-10T07:35:34;22.90;99.90
3758;DHT22;1894;51.038;13.692;2023-06-10T07:38:01;23.10;99.90
3758;DHT22;1894;51.038;13.692;2023-06-10T07:40:28;23.40;99.90
3758;DHT22;1894;51.038;13.692;2023-06-10T07:42:56;23.60;99.90
3758;DHT22;1894;51.038;13.692;2023-06-10T07:45:24;23.60;99.90
3758;DHT22;1894;51.038;13.692;2023-06-10T07:47:52;23.50;99.90
3758;DHT22;1894;51.038;13.692;2023-06-10T07:50:19;23.60;99.90
3758;DHT22;1894;51.038;13.692;2023-06-10T07:52:46;23.50;99.90
3758;DHT22;1894;51.038;13.692;2023-06-10T07:55:13;23.40;99.90
3758;DHT22;1894;51.038;13.692;2023-06-10T07:57:40;23.50;99.90
3758;DHT22;1894;51.038;13.692;2023-06-10T08:00:08;23.50;99.90
3758;DHT22;1894;51.038;13.692;2023-06-10T08:02:38;23.70;99.90
3758;DHT22;1894;51.038;13.692;2023-06-10T08:05:06;24.30;99.90
3758;DHT22;1894;51.038;13.692;2023-06-10T08:07:34;24.50;99.90
3758;DHT22;1894;51.038;13.692;2023-06-10T08:10:01;24.30;99.90
3758;DHT22;1894;51.038;13.692;2023-06-10T08:12:29;24.00;99.90
3758;DHT22;1894;51.038;13.692;2023-06-10T08:14:56;24.20;99.90
3758;DHT22;1894;51.038;13.692;2023-06-10T08:17:23;24.40;99.90
3758;DHT22;1894;51.038;13.692;2023-06-10T08:19:51;24.20;99.90
3758;DHT22;1894;51.038;13.692;2023-06-10T08:22:18;24.30;99.90
3758;DHT22;1894;51.038;13.692;2023-06-10T08:24:45;24.30;99.90
3758;DHT22;1894;51.038;13.692;2023-06-10T08:27:15;24.60;99.90
3758;DHT22;1894;51.038;13.692;2023-06-10T08:29:42;24.60;99.90
3758;DHT22;1894;51.038;13.692;2023-06-10T08:32:09;24.40;99.90
3758;DHT22;1894;51.038;13.692;2023-06-10T08:34:36;24.50;99.90
3758;DHT22;1894;51.038;13.692;2023-06-10T08:37:04;24.30;99.90
3758;DHT22;1894;51.038;13.692;2023-06-10T08:39:31;24.30;99.90
3758;DHT22;1894;51.038;13.692;2023-06-10T08:42:33;24.20;99.90
3758;DHT22;1894;51.038;13.692;2023-06-10T08:45:01;24.40;99.90
3758;DHT22;1894;51.038;13.692;2023-06-10T08:47:30;24.30;99.90
3758;DHT22;1894;51.038;13.692;2023-06-10T08:50:03;24.70;99.90
3758;DHT22;1894;51.038;13.692;2023-06-10T08:52:39;25.00;99.90
3758;DHT22;1894;51.038;13.692;2023-06-10T08:55:15;25.30;99.90
3758;DHT22;1894;51.038;13.692;2023-06-10T08:57:45;25.40;99.90
3758;DHT22;1894;51.038;13.692;2023-06-10T09:00:13;25.20;99.90
3758;DHT22;1894;51.038;13.692;2023-06-10T09:02:40;25.60;99.90
3758;DHT22;1894;51.038;13.692;2023-06-10T09:05:09;25.40;99.90
3758;DHT22;1894;51.038;13.692;2023-06-10T09:07:36;25.80;99.90
3758;DHT22;1894;51.038;13.692;2023-06-10T09:10:04;26.70;99.90
3758;DHT22;1894;51.038;13.692;2023-06-10T09:12:35;26.90;99.90
3758;DHT22;1894;51.038;13.692;2023-06-10T09:15:02;26.60;99.90
3758;DHT22;1894;51.038;13.692;2023-06-10T09:17:30;26.10;99.90
3758;DHT22;1894;51.038;13.692;2023-06-10T09:19:57;26.70;99.90
3758;DHT22;1894;51.038;13.692;2023-06-10T09:22:24;27.00;99.90
3758;DHT22;1894;51.038;13.692;2023-06-10T09:25:05;26.50;99.90
3758;DHT22;1894;51.038;13.692;2023-06-10T09:27:50;26.40;99.90
3758;DHT22;1894;51.038;13.692;2023-06-10T09:30:31;26.70;99.90
3758;DHT22;1894;51.038;13.692;2023-06-10T09:33:10;27.10;99.90
3758;DHT22;1894;51.038;13.692;2023-06-10T09:35:48;27.20;99.90
3758;DHT22;1894;51.038;13.692;2023-06-10T09:38:20;27.20;99.90
3758;DHT22;1894;51.038;13.692;2023-06-10T09:40:53;27.00;99.90
3758;DHT22;1894;51.038;13.692;2023-06-10T09:43:23;27.70;99.90
3758;DHT22;1894;51.038;13.692;2023-06-10T09:46:18;27.80;99.90
3758;DHT22;1894;51.038;13.692;2023-06-10T09:48:47;28.10;99.90
3758;DHT22;1894;51.038;13.692;2023-06-10T09:51:15;28.00;99.90
3758;DHT22;1894;51.038;13.692;2023-06-10T09:53:50;28.40;99.90
3758;DHT22;1894;51.038;13.692;2023-06-10T09:56:18;28.70;99.40
3758;DHT22;1894;51.038;13.692;2023-06-10T09:58:45;28.70;99.60
3758;DHT22;1894;51.038;13.692;2023-06-10T10:01:15;28.90;98.60
3758;DHT22;1894;51.038;13.692;2023-06-10T10:03:52;28.40;99.10
3758;DHT22;1894;51.038;13.692;2023-06-10T10:06:20;28.30;99.60
3758;DHT22;1894;51.038;13.692;2023-06-10T10:08:51;28.00;99.00
3758;DHT22;1894;51.038;13.692;2023-06-10T10:11:20;27.60;99.90
3758;DHT22;1894;51.038;13.692;2023-06-10T10:13:51;27.40;99.90
3758;DHT22;1894;51.038;13.692;2023-06-10T10:16:21;27.10;99.90
3758;DHT22;1894;51.038;13.692;2023-06-10T10:18:55;26.70;99.90
3758;DHT22;1894;51.038;13.692;2023-06-10T10:21:24;27.00;99.90
3758;DHT22;1894;51.038;13.692;2023-06-10T10:24:07;27.00;99.90
3758;DHT22;1894;51.038;13.692;2023-06-10T10:26:38;27.50;99.90
3758;DHT22;1894;51.038;13.692;2023-06-10T10:29:31;28.00;99.90
3758;DHT22;1894;51.038;13.692;2023-06-10T10:32:00;28.20;99.20
3758;DHT22;1894;51.038;13.692;2023-06-10T10:34:59;27.30;99.90
3758;DHT22;1894;51.038;13.692;2023-06-10T10:37:28;26.70;99.90
3758;DHT22;1894;51.038;13.692;2023-06-10T10:40:23;26.30;99.90
3758;DHT22;1894;51.038;13.692;2023-06-10T10:43:18;26.20;99.90
3758;DHT22;1894;51.038;13.692;2023-06-10T10:45:58;26.70;99.90
3758;DHT22;1894;51.038;13.692;2023-06-10T10:48:27;27.10;99.90
3758;DHT22;1894;51.038;13.692;2023-06-10T10:51:01;27.40;99.90
3758;DHT22;1894;51.038;13.692;2023-06-10T10:53:31;28.10;99.90
3758;DHT22;1894;51.038;13.692;2023-06-10T10:56:08;28.40;99.90
3758;DHT22;1894;51.038;13.692;2023-06-10T10:58:38;28.70;99.40
3758;DHT22;1894;51.038;13.692;2023-06-10T11:01:14;28.50;98.00
3758;DHT22;1894;51.038;13.692;2023-06-10T11:03:43;28.40;99.30
3758;DHT22;1894;51.038;13.692;2023-06-10T11:06:18;28.30;99.90
3758;DHT22;1894;51.038;13.692;2023-06-10T11:08:46;28.90;99.90
3758;DHT22;1894;51.038;13.692;2023-06-10T11:11:23;29.40;96.70
3758;DHT22;1894;51.038;13.692;2023-06-10T11:16:41;30.00;95.50
3758;DHT22;1894;51.038;13.692;2023-06-10T11:19:09;29.40;95.60
3758;DHT22;1894;51.038;13.692;2023-06-10T11:21:57;29.60;94.30
3758;DHT22;1894;51.038;13.692;2023-06-10T11:24:26;30.20;94.30
3758;DHT22;1894;51.038;13.692;2023-06-10T11:26:53;29.80;92.90
3758;DHT22;1894;51.038;13.692;2023-06-10T11:29:21;28.90;92.70
3758;DHT22;1894;51.038;13.692;2023-06-10T11:31:51;28.90;94.00
3758;DHT22;1894;51.038;13.692;2023-06-10T11:34:22;29.50;92.40
3758;DHT22;1894;51.038;13.692;2023-06-10T11:36:52;29.50;92.60
3758;DHT22;1894;51.038;13.692;2023-06-10T11:39:20;29.10;92.40
3758;DHT22;1894;51.038;13.692;2023-06-10T11:41:48;29.40;92.00
3758;DHT22;1894;51.038;13.692;2023-06-10T11:44:16;29.00;92.60
3758;DHT22;1894;51.038;13.692;2023-06-10T11:46:47;28.60;92.70
3758;DHT22;1894;51.038;13.692;2023-06-10T11:49:15;28.40;93.30
3758;DHT22;1894;51.038;13.692;2023-06-10T11:51:43;29.40;93.30
3758;DHT22;1894;51.038;13.692;2023-06-10T11:54:18;29.70;92.80
3758;DHT22;1894;51.038;13.692;2023-06-10T11:56:46;30.50;91.60
3758;DHT22;1894;51.038;13.692;2023-06-10T11:59:14;31.90;90.60
3758;DHT22;1894;51.038;13.692;2023-06-10T12:01:45;32.10;83.00
3758;DHT22;1894;51.038;13.692;2023-06-10T12:04:15;31.60;80.70
3758;DHT22;1894;51.038;13.692;2023-06-10T12:06:53;32.90;79.40
3758;DHT22;1894;51.038;13.692;2023-06-10T12:12:04;36.00;68.50
3758;DHT22;1894;51.038;13.692;2023-06-10T12:14:55;37.50;61.30
3758;DHT22;1894;51.038;13.692;2023-06-10T12:20:00;36.30;54.20
3758;DHT22;1894;51.038;13.692;2023-06-10T12:22:42;36.20;54.20
3758;DHT22;1894;51.038;13.692;2023-06-10T12:25:10;36.30;53.30
3758;DHT22;1894;51.038;13.692;2023-06-10T12:27:41;36.90;51.80
3758;DHT22;1894;51.038;13.692;2023-06-10T12:30:20;38.80;49.20
3758;DHT22;1894;51.038;13.692;2023-06-10T12:32:47;38.30;49.60
3758;DHT22;1894;51.038;13.692;2023-06-10T12:35:19;39.00;47.70
3758;DHT22;1894;51.038;13.692;2023-06-10T12:38:02;38.90;46.90
3758;DHT22;1894;51.038;13.692;2023-06-10T12:40:33;38.10;46.40
3758;DHT22;1894;51.038;13.692;2023-06-10T12:43:01;37.60;45.80
3758;DHT22;1894;51.038;13.692;2023-06-10T12:45:32;39.40;44.30
3758;DHT22;1894;51.038;13.692;2023-06-10T12:50:52;39.60;42.40
3758;DHT22;1894;51.038;13.692;2023-06-10T12:53:20;41.30;38.50
3758;DHT22;1894;51.038;13.692;2023-06-10T12:55:47;40.90;38.50
3758;DHT22;1894;51.038;13.692;2023-06-10T12:58:15;41.10;36.90
3758;DHT22;1894;51.038;13.692;2023-06-10T13:00:42;38.90;38.30
3758;DHT22;1894;51.038;13.692;2023-06-10T13:03:10;39.90;38.50
3758;DHT22;1894;51.038;13.692;2023-06-10T13:05:38;40.70;37.00
3758;DHT22;1894;51.038;13.692;2023-06-10T13:08:08;40.50;37.10
3758;DHT22;1894;51.038;13.692;2023-06-10T13:10:38;39.20;39.90
3758;DHT22;1894;51.038;13.692;2023-06-10T13:13:05;40.50;38.30
3758;DHT22;1894;51.038;13.692;2023-06-10T13:15:35;40.00;37.10
3758;DHT22;1894;51.038;13.692;2023-06-10T13:18:09;36.50;41.90
3758;DHT22;1894;51.038;13.692;2023-06-10T13:20:37;37.30;43.10
3758;DHT22;1894;51.038;13.692;2023-06-10T13:23:04;38.80;41.40
3758;DHT22;1894;51.038;13.692;2023-06-10T13:25:31;39.70;38.40
3758;DHT22;1894;51.038;13.692;2023-06-10T13:27:59;40.50;37.20
3758;DHT22;1894;51.038;13.692;2023-06-10T13:30:26;41.30;36.90
3758;DHT22;1894;51.038;13.692;2023-06-10T13:32:53;41.10;34.40
3758;DHT22;1894;51.038;13.692;2023-06-10T13:35:20;41.40;33.40
3758;DHT22;1894;51.038;13.692;2023-06-10T13:37:47;40.80;32.70
3758;DHT22;1894;51.038;13.692;2023-06-10T13:40:14;38.10;36.40
3758;DHT22;1894;51.038;13.692;2023-06-10T13:42:42;39.00;36.00
3758;DHT22;1894;51.038;13.692;2023-06-10T13:45:09;39.10;36.90
3758;DHT22;1894;51.038;13.692;2023-06-10T13:47:37;39.30;35.50
3758;DHT22;1894;51.038;13.692;2023-06-10T13:50:06;40.70;33.60
3758;DHT22;1894;51.038;13.692;2023-06-10T13:52:33;41.50;32.70
3758;DHT22;1894;51.038;13.692;2023-06-10T13:55:00;41.80;31.60
3758;DHT22;1894;51.038;13.692;2023-06-10T13:57:27;41.10;30.10
3758;DHT22;1894;51.038;13.692;2023-06-10T13:59:54;42.60;30.70
3758;DHT22;1894;51.038;13.692;2023-06-10T14:02:23;43.80;28.30
3758;DHT22;1894;51.038;13.692;2023-06-10T14:04:50;42.70;27.10
3758;DHT22;1894;51.038;13.692;2023-06-10T14:07:17;41.70;29.50
3758;DHT22;1894;51.038;13.692;2023-06-10T14:09:44;41.50;28.70
3758;DHT22;1894;51.038;13.692;2023-06-10T14:12:12;40.30;27.80
3758;DHT22;1894;51.038;13.692;2023-06-10T14:14:39;39.50;28.20
3758;DHT22;1894;51.038;13.692;2023-06-10T14:17:06;39.40;28.00
3758;DHT22;1894;51.038;13.692;2023-06-10T14:19:34;40.90;27.70
3758;DHT22;1894;51.038;13.692;2023-06-10T14:22:01;40.00;28.20
3758;DHT22;1894;51.038;13.692;2023-06-10T14:24:28;40.30;28.60
3758;DHT22;1894;51.038;13.692;2023-06-10T14:26:55;40.10;29.60
3758;DHT22;1894;51.038;13.692;2023-06-10T14:29:25;40.30;29.00
3758;DHT22;1894;51.038;13.692;2023-06-10T14:31:55;40.00;28.60
3758;DHT22;1894;51.038;13.692;2023-06-10T14:34:23;42.20;28.30
3758;DHT22;1894;51.038;13.692;2023-06-10T14:36:55;43.40;27.70
3758;DHT22;1894;51.038;13.692;2023-06-10T14:39:22;44.00;26.30
3758;DHT22;1894;51.038;13.692;2023-06-10T14:41:49;42.60;26.80
3758;DHT22;1894;51.038;13.692;2023-06-10T14:44:17;42.30;26.50
3758;DHT22;1894;51.038;13.692;2023-06-10T14:46:44;42.90;26.80
3758;DHT22;1894;51.038;13.692;2023-06-10T14:49:12;41.90;26.70
3758;DHT22;1894;51.038;13.692;2023-06-10T14:51:39;40.90;25.40
3758;DHT22;1894;51.038;13.692;2023-06-10T14:54:06;42.10;26.50
3758;DHT22;1894;51.038;13.692;2023-06-10T14:56:33;40.90;26.30
3758;DHT22;1894;51.038;13.692;2023-06-10T14:59:01;42.70;26.30
3758;DHT22;1894;51.038;13.692;2023-06-10T15:01:28;43.10;25.70
3758;DHT22;1894;51.038;13.692;2023-06-10T15:03:55;42.30;26.50
3758;DHT22;1894;51.038;13.692;2023-06-10T15:06:22;43.30;25.30
3758;DHT22;1894;51.038;13.692;2023-06-10T15:08:49;42.70;25.30
3758;DHT22;1894;51.038;13.692;2023-06-10T15:11:16;41.60;25.80
3758;DHT22;1894;51.038;13.692;2023-06-10T15:13:43;42.80;25.80
3758;DHT22;1894;51.038;13.692;2023-06-10T15:16:10;42.00;26.10
3758;DHT22;1894;51.038;13.692;2023-06-10T15:18:38;42.00;26.00
3758;DHT22;1894;51.038;13.692;2023-06-10T15:21:05;43.20;25.50
3758;DHT22;1894;51.038;13.692;2023-06-10T15:23:32;42.70;26.00
3758;DHT22;1894;51.038;13.692;2023-06-10T15:25:59;41.80;27.10
3758;DHT22;1894;51.038;13.692;2023-06-10T15:28:26;42.10;27.60
3758;DHT22;1894;51.038;13.692;2023-06-10T15:30:54;40.60;28.40
3758;DHT22;1894;51.038;13.692;2023-06-10T15:33:21;41.20;28.50
3758;DHT22;1894;51.038;13.692;2023-06-10T15:35:48;41.50;28.20
3758;DHT22;1894;51.038;13.692;2023-06-10T15:38:15;42.00;28.40
3758;DHT22;1894;51.038;13.692;2023-06-10T15:40:42;41.30;28.30
3758;DHT22;1894;51.038;13.692;2023-06-10T15:43:09;39.60;29.80
3758;DHT22;1894;51.038;13.692;2023-06-10T15:45:36;38.70;30.30
3758;DHT22;1894;51.038;13.692;2023-06-10T15:48:04;37.00;32.30
3758;DHT22;1894;51.038;13.692;2023-06-10T15:50:31;35.90;35.20
3758;DHT22;1894;51.038;13.692;2023-06-10T15:52:58;36.40;34.40
3758;DHT22;1894;51.038;13.692;2023-06-10T15:55:25;37.00;34.60
3758;DHT22;1894;51.038;13.692;2023-06-10T15:57:53;39.20;33.00
3758;DHT22;1894;51.038;13.692;2023-06-10T16:00:20;40.90;31.20
3758;DHT22;1894;51.038;13.692;2023-06-10T16:02:47;40.40;29.80
3758;DHT22;1894;51.038;13.692;2023-06-10T16:05:14;37.10;31.90
3758;DHT22;1894;51.038;13.692;2023-06-10T16:07:41;37.60;32.20
3758;DHT22;1894;51.038;13.692;2023-06-10T16:10:09;38.60;32.00
3758;DHT22;1894;51.038;13.692;2023-06-10T16:12:36;39.40;30.70